Monday, October 15, 2018, 11:56 PM EDT
Back to Local

KEWN, New Bern, Craven County Regional Airport

Location: New Bern, NC, United States Lat: 35.068
Local Time: 11:56 PM EDT ( 3:56 GMT) Lon: -77.047
Time Zone: US/Eastern Elev: 16 ft

Show me the last for .
Show Decoded

2018-10-15 22:54 METAR KEWN 160254Z AUTO 20007KT 10SM CLR 23/21 A3014 RMK AO2 SLP207 T02330211
                 50001 $ =
2018-10-15 21:54 METAR KEWN 160154Z AUTO 19005KT 10SM CLR 23/21 A3015 RMK AO2 SLP207 T02330211 $
                 =
2018-10-15 20:54 METAR KEWN 160054Z 19005KT 10SM CLR 23/21 A3014 RMK AO2 SLP207 T02330211 $ =
2018-10-15 19:54 METAR KEWN 152354Z 18006KT 10SM CLR 24/21 A3014 RMK AO2 SLP205 T02390211 10300
                 20239 53006 $ =
2018-10-15 18:54 METAR KEWN 152254Z 18007KT 10SM CLR 25/21 A3013 RMK AO2 SLP203 T02500206 $ =
2018-10-15 17:54 METAR KEWN 152154Z 18006KT 10SM CLR 27/20 A3012 RMK AO2 SLP199 T02720200 $ =
2018-10-15 16:54 METAR KEWN 152054Z 28005KT 10SM OVC043 28/21 A3012 RMK AO2 SLP200 T02780211
                 56008 $ =
2018-10-15 15:54 METAR KEWN 151954Z 18009KT 10SM BKN045 BKN060 29/21 A3012 RMK AO2 SLP200
                 T02940211 $ =
2018-10-15 14:54 METAR KEWN 151854Z 18007KT 10SM FEW045 29/21 A3012 RMK AO2 SLP201 T02940206 $ =
2018-10-15 13:54 METAR KEWN 151754Z 19008KT 10SM FEW036 SCT075 29/21 A3014 RMK AO2 SLP207 60000
                 T02890211 10294 20194 58022 $ =
2018-10-15 12:54 METAR KEWN 151654Z 20007KT 10SM BKN065 28/22 A3017 RMK AO2 RAB26E38 SLP217 P0000
                 T02830217 $ =
2018-10-15 11:54 METAR KEWN 151554Z 18010KT 10SM SCT033 BKN042 BKN049 29/21 A3019 RMK AO2 SLP224
                 T02890211 $ =
2018-10-15 10:54 METAR KEWN 151454Z 19007KT 10SM FEW028 27/21 A3021 RMK AO2 SLP229 T02720211
                 50002 $ =
2018-10-15 09:54 METAR KEWN 151354Z 20005KT 10SM CLR 26/21 A3022 RMK AO2 SLP233 T02610206 $ =
2018-10-15 08:54 METAR KEWN 151254Z 00000KT 10SM CLR 23/21 A3022 RMK AO2 SLP232 T02330206 $ =
2018-10-15 07:54 METAR KEWN 151154Z 00000KT 10SM CLR 19/19 A3020 RMK AO2 SLP227 T01940189 10194
                 20172 51011 $ =
2018-10-15 07:41 METAR KEWN 151141Z 18003KT 10SM CLR 18/18 A3020 RMK AO2 T01830183 $ =
2018-10-15 07:34 METAR KEWN 151134Z 00000KT 1 1/4SM CLR 19/19 A3020 RMK AO2 T01890189 $ =
2018-10-15 06:54 METAR KEWN 151054Z 00000KT 9SM CLR 19/18 A3020 RMK AO2 SLP225 T01890183 $ =
2018-10-15 05:54 METAR KEWN 150954Z 00000KT 10SM SCT120 19/18 A3018 RMK AO2 SLP219 T01890183 $ =
2018-10-15 04:54 METAR KEWN 150854Z AUTO 00000KT 10SM FEW055 18/18 A3017 RMK AO2 SLP216 T01830178
                 56008 $ =
2018-10-15 03:54 METAR KEWN 150754Z AUTO 00000KT 10SM FEW055 18/17 A3018 RMK AO2 SLP218 T01780167
                 $ =
2018-10-15 02:54 METAR KEWN 150654Z AUTO 00000KT 10SM CLR 18/17 A3019 RMK AO2 SLP222 T01780167 $
                 =
2018-10-15 01:54 METAR KEWN 150554Z AUTO 10003KT 10SM FEW026 SCT060 19/17 A3020 RMK AO2 SLP224
                 T01940172 10200 20183 57005 $ =
2018-10-15 00:54 METAR KEWN 150454Z AUTO 04003KT 10SM FEW120 19/17 A3020 RMK AO2 SLP227 T01940167
                 402440133 $ =

Support USWX by starting your Amazon purchase here.